sensor_id;sensor_type;location;lat;lon;timestamp;temperature;humidity
3069;DHT22;1545;51.728;8.796;2022-11-20T00:01:25;-5.30;98.80
3069;DHT22;1545;51.728;8.796;2022-11-20T00:03:53;-5.40;98.70
3069;DHT22;1545;51.728;8.796;2022-11-20T00:06:20;-5.40;98.80
3069;DHT22;1545;51.728;8.796;2022-11-20T00:08:46;-5.40;98.80
3069;DHT22;1545;51.728;8.796;2022-11-20T00:11:18;-5.30;98.80
3069;DHT22;1545;51.728;8.796;2022-11-20T00:13:45;-5.10;98.80
3069;DHT22;1545;51.728;8.796;2022-11-20T00:16:12;-5.10;98.80
3069;DHT22;1545;51.728;8.796;2022-11-20T00:18:38;-5.00;98.80
3069;DHT22;1545;51.728;8.796;2022-11-20T00:21:05;-5.10;98.80
3069;DHT22;1545;51.728;8.796;2022-11-20T00:23:32;-5.10;98.80
3069;DHT22;1545;51.728;8.796;2022-11-20T00:26:08;-5.10;98.80
3069;DHT22;1545;51.728;8.796;2022-11-20T00:28:34;-5.10;98.80
3069;DHT22;1545;51.728;8.796;2022-11-20T00:31:07;-5.20;98.80
3069;DHT22;1545;51.728;8.796;2022-11-20T00:33:33;-5.30;98.80
3069;DHT22;1545;51.728;8.796;2022-11-20T00:36:06;-5.30;98.80
3069;DHT22;1545;51.728;8.796;2022-11-20T00:38:33;-5.20;98.80
3069;DHT22;1545;51.728;8.796;2022-11-20T00:41:04;-5.00;98.60
3069;DHT22;1545;51.728;8.796;2022-11-20T00:43:30;-5.10;98.10
3069;DHT22;1545;51.728;8.796;2022-11-20T00:45:59;-5.20;98.20
3069;DHT22;1545;51.728;8.796;2022-11-20T00:48:25;-5.30;98.50
3069;DHT22;1545;51.728;8.796;2022-11-20T00:50:51;-5.20;98.60
3069;DHT22;1545;51.728;8.796;2022-11-20T00:53:16;-5.10;98.30
3069;DHT22;1545;51.728;8.796;2022-11-20T00:55:42;-5.10;97.80
3069;DHT22;1545;51.728;8.796;2022-11-20T00:58:07;-5.00;97.70
3069;DHT22;1545;51.728;8.796;2022-11-20T01:00:33;-5.10;97.60
3069;DHT22;1545;51.728;8.796;2022-11-20T01:02:58;-5.10;97.60
3069;DHT22;1545;51.728;8.796;2022-11-20T01:05:24;-5.10;97.70
3069;DHT22;1545;51.728;8.796;2022-11-20T01:07:49;-5.10;97.60
3069;DHT22;1545;51.728;8.796;2022-11-20T01:10:15;-5.10;97.50
3069;DHT22;1545;51.728;8.796;2022-11-20T01:12:40;-5.20;97.30
3069;DHT22;1545;51.728;8.796;2022-11-20T01:15:06;-5.30;97.00
3069;DHT22;1545;51.728;8.796;2022-11-20T01:17:33;-5.30;97.10
3069;DHT22;1545;51.728;8.796;2022-11-20T01:19:59;-5.50;97.40
3069;DHT22;1545;51.728;8.796;2022-11-20T01:22:24;-5.40;97.50
3069;DHT22;1545;51.728;8.796;2022-11-20T01:24:50;-5.30;97.30
3069;DHT22;1545;51.728;8.796;2022-11-20T01:27:15;-5.10;97.30
3069;DHT22;1545;51.728;8.796;2022-11-20T01:29:41;-5.00;97.30
3069;DHT22;1545;51.728;8.796;2022-11-20T01:32:06;-5.00;96.90
3069;DHT22;1545;51.728;8.796;2022-11-20T01:34:32;-5.10;96.80
3069;DHT22;1545;51.728;8.796;2022-11-20T01:36:57;-5.10;96.80
3069;DHT22;1545;51.728;8.796;2022-11-20T01:39:25;-5.20;96.80
3069;DHT22;1545;51.728;8.796;2022-11-20T01:41:52;-5.20;97.00
3069;DHT22;1545;51.728;8.796;2022-11-20T01:44:58;-5.30;97.10
3069;DHT22;1545;51.728;8.796;2022-11-20T01:47:34;-5.50;96.80
3069;DHT22;1545;51.728;8.796;2022-11-20T01:52:42;-5.40;97.40
3069;DHT22;1545;51.728;8.796;2022-11-20T01:55:15;-5.40;97.70
3069;DHT22;1545;51.728;8.796;2022-11-20T01:57:43;-5.40;97.80
3069;DHT22;1545;51.728;8.796;2022-11-20T02:00:12;-5.70;97.60
3069;DHT22;1545;51.728;8.796;2022-11-20T02:02:41;-5.80;97.50
3069;DHT22;1545;51.728;8.796;2022-11-20T02:05:19;-5.80;97.40
3069;DHT22;1545;51.728;8.796;2022-11-20T02:07:48;-5.70;97.70
3069;DHT22;1545;51.728;8.796;2022-11-20T02:10:15;-5.80;97.80
3069;DHT22;1545;51.728;8.796;2022-11-20T02:12:40;-5.80;98.10
3069;DHT22;1545;51.728;8.796;2022-11-20T02:15:24;-5.80;98.30
3069;DHT22;1545;51.728;8.796;2022-11-20T02:17:50;-5.80;98.40
3069;DHT22;1545;51.728;8.796;2022-11-20T02:20:15;-6.10;98.50
3069;DHT22;1545;51.728;8.796;2022-11-20T02:22:53;-6.00;98.50
3069;DHT22;1545;51.728;8.796;2022-11-20T02:25:21;-6.10;98.00
3069;DHT22;1545;51.728;8.796;2022-11-20T02:27:47;-6.20;97.90
3069;DHT22;1545;51.728;8.796;2022-11-20T02:30:12;-6.10;98.20
3069;DHT22;1545;51.728;8.796;2022-11-20T02:32:38;-6.20;98.20
3069;DHT22;1545;51.728;8.796;2022-11-20T02:37:59;-6.00;98.80
3069;DHT22;1545;51.728;8.796;2022-11-20T02:40:26;-6.00;98.80
3069;DHT22;1545;51.728;8.796;2022-11-20T02:42:56;-6.20;98.80
3069;DHT22;1545;51.728;8.796;2022-11-20T02:45:22;-6.20;98.80
3069;DHT22;1545;51.728;8.796;2022-11-20T02:47:48;-6.20;98.80
3069;DHT22;1545;51.728;8.796;2022-11-20T02:50:14;-6.20;98.80
3069;DHT22;1545;51.728;8.796;2022-11-20T02:52:39;-6.10;98.80
3069;DHT22;1545;51.728;8.796;2022-11-20T02:55:05;-5.90;98.80
3069;DHT22;1545;51.728;8.796;2022-11-20T02:57:31;-5.80;98.80
3069;DHT22;1545;51.728;8.796;2022-11-20T02:59:57;-5.70;98.80
3069;DHT22;1545;51.728;8.796;2022-11-20T03:02:22;-5.90;98.80
3069;DHT22;1545;51.728;8.796;2022-11-20T03:04:48;-5.90;98.80
3069;DHT22;1545;51.728;8.796;2022-11-20T03:07:13;-6.00;98.80
3069;DHT22;1545;51.728;8.796;2022-11-20T03:09:39;-6.00;98.80
3069;DHT22;1545;51.728;8.796;2022-11-20T03:12:05;-6.00;98.80
3069;DHT22;1545;51.728;8.796;2022-11-20T03:14:30;-5.90;98.80
3069;DHT22;1545;51.728;8.796;2022-11-20T03:16:56;-6.00;98.80
3069;DHT22;1545;51.728;8.796;2022-11-20T03:19:22;-6.10;98.80
3069;DHT22;1545;51.728;8.796;2022-11-20T03:21:47;-6.10;98.60
3069;DHT22;1545;51.728;8.796;2022-11-20T03:24:13;-6.10;98.30
3069;DHT22;1545;51.728;8.796;2022-11-20T03:26:39;-6.20;98.00
3069;DHT22;1545;51.728;8.796;2022-11-20T03:29:05;-6.20;97.90
3069;DHT22;1545;51.728;8.796;2022-11-20T03:31:33;-6.20;97.60
3069;DHT22;1545;51.728;8.796;2022-11-20T03:34:00;-6.10;97.50
3069;DHT22;1545;51.728;8.796;2022-11-20T03:36:27;-6.10;97.60
3069;DHT22;1545;51.728;8.796;2022-11-20T03:38:54;-6.00;97.70
3069;DHT22;1545;51.728;8.796;2022-11-20T03:41:25;-6.00;97.50
3069;DHT22;1545;51.728;8.796;2022-11-20T03:43:56;-5.80;97.50
3069;DHT22;1545;51.728;8.796;2022-11-20T03:46:23;-5.60;97.10
3069;DHT22;1545;51.728;8.796;2022-11-20T03:48:49;-5.40;96.70
3069;DHT22;1545;51.728;8.796;2022-11-20T03:51:17;-5.30;96.00
3069;DHT22;1545;51.728;8.796;2022-11-20T03:53:45;-5.10;95.70
3069;DHT22;1545;51.728;8.796;2022-11-20T03:56:11;-5.10;95.10
3069;DHT22;1545;51.728;8.796;2022-11-20T03:58:38;-4.90;94.90
3069;DHT22;1545;51.728;8.796;2022-11-20T04:01:20;-4.90;94.50
3069;DHT22;1545;51.728;8.796;2022-11-20T04:03:47;-5.00;94.20
3069;DHT22;1545;51.728;8.796;2022-11-20T04:06:15;-5.20;93.80
3069;DHT22;1545;51.728;8.796;2022-11-20T04:08:42;-5.40;93.80
3069;DHT22;1545;51.728;8.796;2022-11-20T04:11:19;-5.50;94.70
3069;DHT22;1545;51.728;8.796;2022-11-20T04:13:51;-5.70;95.50
3069;DHT22;1545;51.728;8.796;2022-11-20T04:16:17;-5.90;96.40
3069;DHT22;1545;51.728;8.796;2022-11-20T04:18:44;-5.80;96.80
3069;DHT22;1545;51.728;8.796;2022-11-20T04:21:10;-5.90;97.20
3069;DHT22;1545;51.728;8.796;2022-11-20T04:23:35;-5.90;97.40
3069;DHT22;1545;51.728;8.796;2022-11-20T04:26:06;-6.00;97.50
3069;DHT22;1545;51.728;8.796;2022-11-20T04:28:32;-6.40;97.50
3069;DHT22;1545;51.728;8.796;2022-11-20T04:31:03;-6.40;97.30
3069;DHT22;1545;51.728;8.796;2022-11-20T04:33:29;-6.40;97.70
3069;DHT22;1545;51.728;8.796;2022-11-20T04:35:55;-6.50;97.80
3069;DHT22;1545;51.728;8.796;2022-11-20T04:38:20;-6.40;98.20
3069;DHT22;1545;51.728;8.796;2022-11-20T04:40:46;-6.40;98.40
3069;DHT22;1545;51.728;8.796;2022-11-20T04:43:11;-6.50;98.70
3069;DHT22;1545;51.728;8.796;2022-11-20T04:45:37;-6.60;98.70
3069;DHT22;1545;51.728;8.796;2022-11-20T04:48:02;-6.80;98.60
3069;DHT22;1545;51.728;8.796;2022-11-20T04:50:28;-6.80;98.30
3069;DHT22;1545;51.728;8.796;2022-11-20T04:52:53;-6.80;98.20
3069;DHT22;1545;51.728;8.796;2022-11-20T04:55:19;-7.00;98.20
3069;DHT22;1545;51.728;8.796;2022-11-20T04:57:44;-6.90;98.30
3069;DHT22;1545;51.728;8.796;2022-11-20T05:00:10;-6.80;98.70
3069;DHT22;1545;51.728;8.796;2022-11-20T05:02:36;-6.70;98.70
3069;DHT22;1545;51.728;8.796;2022-11-20T05:05:02;-6.50;98.80
3069;DHT22;1545;51.728;8.796;2022-11-20T05:07:27;-6.20;98.80
3069;DHT22;1545;51.728;8.796;2022-11-20T05:09:53;-6.00;98.80
3069;DHT22;1545;51.728;8.796;2022-11-20T05:12:18;-5.90;98.80
3069;DHT22;1545;51.728;8.796;2022-11-20T05:14:44;-5.90;98.70
3069;DHT22;1545;51.728;8.796;2022-11-20T05:17:11;-6.00;98.30
3069;DHT22;1545;51.728;8.796;2022-11-20T05:19:36;-6.00;98.10
3069;DHT22;1545;51.728;8.796;2022-11-20T05:22:02;-6.10;98.00
3069;DHT22;1545;51.728;8.796;2022-11-20T05:24:29;-6.10;97.90
3069;DHT22;1545;51.728;8.796;2022-11-20T05:26:54;-6.10;97.70
3069;DHT22;1545;51.728;8.796;2022-11-20T05:29:20;-6.20;97.60
3069;DHT22;1545;51.728;8.796;2022-11-20T05:31:45;-6.20;97.90
3069;DHT22;1545;51.728;8.796;2022-11-20T05:34:11;-6.10;98.30
3069;DHT22;1545;51.728;8.796;2022-11-20T05:36:36;-5.90;98.70
3069;DHT22;1545;51.728;8.796;2022-11-20T05:39:02;-5.70;98.80
3069;DHT22;1545;51.728;8.796;2022-11-20T05:41:28;-5.60;98.80
3069;DHT22;1545;51.728;8.796;2022-11-20T05:43:56;-5.40;98.80
3069;DHT22;1545;51.728;8.796;2022-11-20T05:46:22;-5.20;98.80
3069;DHT22;1545;51.728;8.796;2022-11-20T05:48:47;-5.10;98.40
3069;DHT22;1545;51.728;8.796;2022-11-20T05:51:16;-5.00;98.40
3069;DHT22;1545;51.728;8.796;2022-11-20T05:53:41;-4.90;98.50
3069;DHT22;1545;51.728;8.796;2022-11-20T05:56:10;-4.80;98.80
3069;DHT22;1545;51.728;8.796;2022-11-20T05:58:36;-4.70;98.70
3069;DHT22;1545;51.728;8.796;2022-11-20T06:01:07;-4.60;98.70
3069;DHT22;1545;51.728;8.796;2022-11-20T06:03:33;-4.60;98.60
3069;DHT22;1545;51.728;8.796;2022-11-20T06:05:59;-4.50;98.70
3069;DHT22;1545;51.728;8.796;2022-11-20T06:08:25;-4.40;98.50
3069;DHT22;1545;51.728;8.796;2022-11-20T06:10:50;-4.30;98.30
3069;DHT22;1545;51.728;8.796;2022-11-20T06:13:16;-4.30;98.10
3069;DHT22;1545;51.728;8.796;2022-11-20T06:15:41;-4.30;98.10
3069;DHT22;1545;51.728;8.796;2022-11-20T06:18:07;-4.20;98.00
3069;DHT22;1545;51.728;8.796;2022-11-20T06:20:32;-4.20;98.00
3069;DHT22;1545;51.728;8.796;2022-11-20T06:22:58;-4.20;98.00
3069;DHT22;1545;51.728;8.796;2022-11-20T06:25:23;-4.30;97.80
3069;DHT22;1545;51.728;8.796;2022-11-20T06:27:49;-4.30;97.80
3069;DHT22;1545;51.728;8.796;2022-11-20T06:30:15;-4.20;97.80
3069;DHT22;1545;51.728;8.796;2022-11-20T06:32:40;-4.10;97.80
3069;DHT22;1545;51.728;8.796;2022-11-20T06:35:06;-4.10;97.80
3069;DHT22;1545;51.728;8.796;2022-11-20T06:37:31;-4.00;97.90
3069;DHT22;1545;51.728;8.796;2022-11-20T06:39:57;-3.80;98.00
3069;DHT22;1545;51.728;8.796;2022-11-20T06:42:22;-3.80;97.90
3069;DHT22;1545;51.728;8.796;2022-11-20T06:44:48;-3.80;97.80
3069;DHT22;1545;51.728;8.796;2022-11-20T06:47:13;-3.70;97.80
3069;DHT22;1545;51.728;8.796;2022-11-20T06:49:39;-3.70;97.60
3069;DHT22;1545;51.728;8.796;2022-11-20T06:52:04;-3.70;97.50
3069;DHT22;1545;51.728;8.796;2022-11-20T06:54:30;-3.80;97.60
3069;DHT22;1545;51.728;8.796;2022-11-20T06:56:55;-3.80;97.80
3069;DHT22;1545;51.728;8.796;2022-11-20T06:59:21;-3.80;97.70
3069;DHT22;1545;51.728;8.796;2022-11-20T07:01:46;-3.90;97.80
3069;DHT22;1545;51.728;8.796;2022-11-20T07:04:12;-3.90;98.10
3069;DHT22;1545;51.728;8.796;2022-11-20T07:06:38;-3.80;98.10
3069;DHT22;1545;51.728;8.796;2022-11-20T07:09:03;-3.70;98.30
3069;DHT22;1545;51.728;8.796;2022-11-20T07:11:29;-3.70;98.10
3069;DHT22;1545;51.728;8.796;2022-11-20T07:13:56;-3.70;98.10
3069;DHT22;1545;51.728;8.796;2022-11-20T07:16:22;-3.60;98.20
3069;DHT22;1545;51.728;8.796;2022-11-20T07:18:47;-3.40;98.30
3069;DHT22;1545;51.728;8.796;2022-11-20T07:21:13;-3.30;98.40
3069;DHT22;1545;51.728;8.796;2022-11-20T07:23:38;-3.30;98.20
3069;DHT22;1545;51.728;8.796;2022-11-20T07:26:08;-3.20;98.20
3069;DHT22;1545;51.728;8.796;2022-11-20T07:28:34;-3.10;98.10
3069;DHT22;1545;51.728;8.796;2022-11-20T07:31:00;-3.00;97.80
3069;DHT22;1545;51.728;8.796;2022-11-20T07:33:26;-2.90;98.00
3069;DHT22;1545;51.728;8.796;2022-11-20T07:35:51;-2.80;98.10
3069;DHT22;1545;51.728;8.796;2022-11-20T07:38:17;-2.70;98.30
3069;DHT22;1545;51.728;8.796;2022-11-20T07:40:42;-2.60;98.10
3069;DHT22;1545;51.728;8.796;2022-11-20T07:43:08;-2.50;98.10
3069;DHT22;1545;51.728;8.796;2022-11-20T07:45:33;-2.40;98.00
3069;DHT22;1545;51.728;8.796;2022-11-20T07:47:59;-2.30;97.90
3069;DHT22;1545;51.728;8.796;2022-11-20T07:50:25;-2.20;97.90
3069;DHT22;1545;51.728;8.796;2022-11-20T07:52:50;-2.10;98.10
3069;DHT22;1545;51.728;8.796;2022-11-20T07:55:16;-2.00;98.30
3069;DHT22;1545;51.728;8.796;2022-11-20T07:57:42;-1.80;98.30
3069;DHT22;1545;51.728;8.796;2022-11-20T08:00:09;-1.80;98.00
3069;DHT22;1545;51.728;8.796;2022-11-20T08:02:40;-1.70;97.70
3069;DHT22;1545;51.728;8.796;2022-11-20T08:05:06;-1.60;97.50
3069;DHT22;1545;51.728;8.796;2022-11-20T08:07:39;-1.50;97.20
3069;DHT22;1545;51.728;8.796;2022-11-20T08:10:05;-1.30;97.10
3069;DHT22;1545;51.728;8.796;2022-11-20T08:12:31;-1.20;96.80
3069;DHT22;1545;51.728;8.796;2022-11-20T08:15:15;-1.10;96.70
3069;DHT22;1545;51.728;8.796;2022-11-20T08:17:41;-1.00;96.70
3069;DHT22;1545;51.728;8.796;2022-11-20T08:20:07;-0.90;96.60
3069;DHT22;1545;51.728;8.796;2022-11-20T08:22:32;-0.80;96.40
3069;DHT22;1545;51.728;8.796;2022-11-20T08:24:58;-0.70;96.30
3069;DHT22;1545;51.728;8.796;2022-11-20T08:27:23;-0.60;96.20
3069;DHT22;1545;51.728;8.796;2022-11-20T08:29:49;-0.50;96.00
3069;DHT22;1545;51.728;8.796;2022-11-20T08:32:14;-0.40;96.00
3069;DHT22;1545;51.728;8.796;2022-11-20T08:34:40;-0.30;95.90
3069;DHT22;1545;51.728;8.796;2022-11-20T08:37:05;-0.30;95.50
3069;DHT22;1545;51.728;8.796;2022-11-20T08:39:31;-0.20;95.60
3069;DHT22;1545;51.728;8.796;2022-11-20T08:41:56;0.00;95.70
3069;DHT22;1545;51.728;8.796;2022-11-20T08:44:22;0.00;95.30
3069;DHT22;1545;51.728;8.796;2022-11-20T08:46:48;0.10;95.10
3069;DHT22;1545;51.728;8.796;2022-11-20T08:49:14;0.10;95.50
3069;DHT22;1545;51.728;8.796;2022-11-20T08:51:40;0.20;95.50
3069;DHT22;1545;51.728;8.796;2022-11-20T08:54:07;0.20;95.70
3069;DHT22;1545;51.728;8.796;2022-11-20T08:56:33;0.30;95.40
3069;DHT22;1545;51.728;8.796;2022-11-20T08:58:59;0.30;95.60
3069;DHT22;1545;51.728;8.796;2022-11-20T09:01:25;0.40;95.70
3069;DHT22;1545;51.728;8.796;2022-11-20T09:03:51;0.50;95.70
3069;DHT22;1545;51.728;8.796;2022-11-20T09:06:17;0.50;95.40
3069;DHT22;1545;51.728;8.796;2022-11-20T09:08:42;0.50;95.30
3069;DHT22;1545;51.728;8.796;2022-11-20T09:11:08;0.60;95.10
3069;DHT22;1545;51.728;8.796;2022-11-20T09:13:35;0.50;95.00
3069;DHT22;1545;51.728;8.796;2022-11-20T09:16:07;0.60;94.50
3069;DHT22;1545;51.728;8.796;2022-11-20T09:18:34;0.50;93.80
3069;DHT22;1545;51.728;8.796;2022-11-20T09:21:03;0.00;92.70
3069;DHT22;1545;51.728;8.796;2022-11-20T09:23:34;-0.10;93.60
3069;DHT22;1545;51.728;8.796;2022-11-20T09:26:11;0.00;94.50
3069;DHT22;1545;51.728;8.796;2022-11-20T09:28:37;0.00;94.50
3069;DHT22;1545;51.728;8.796;2022-11-20T09:31:15;0.00;93.90
3069;DHT22;1545;51.728;8.796;2022-11-20T09:33:42;0.00;94.20
3069;DHT22;1545;51.728;8.796;2022-11-20T09:36:08;0.10;95.00
3069;DHT22;1545;51.728;8.796;2022-11-20T09:38:34;0.30;95.50
3069;DHT22;1545;51.728;8.796;2022-11-20T09:41:06;0.30;94.60
3069;DHT22;1545;51.728;8.796;2022-11-20T09:46:29;0.40;94.30
3069;DHT22;1545;51.728;8.796;2022-11-20T09:54:11;-0.20;94.70
3069;DHT22;1545;51.728;8.796;2022-11-20T09:56:41;-0.30;95.80
3069;DHT22;1545;51.728;8.796;2022-11-20T09:59:26;-0.30;96.60
3069;DHT22;1545;51.728;8.796;2022-11-20T10:01:54;-0.30;97.20
3069;DHT22;1545;51.728;8.796;2022-11-20T10:04:20;-0.20;97.20
3069;DHT22;1545;51.728;8.796;2022-11-20T10:07:12;-0.20;97.30
3069;DHT22;1545;51.728;8.796;2022-11-20T10:09:40;-0.20;97.50
3069;DHT22;1545;51.728;8.796;2022-11-20T10:15:01;-0.10;97.90
3069;DHT22;1545;51.728;8.796;2022-11-20T10:20:27;-0.10;97.80
3069;DHT22;1545;51.728;8.796;2022-11-20T10:25:51;0.10;97.80
3069;DHT22;1545;51.728;8.796;2022-11-20T10:28:30;0.10;97.70
3069;DHT22;1545;51.728;8.796;2022-11-20T10:31:03;0.20;97.60
3069;DHT22;1545;51.728;8.796;2022-11-20T10:33:33;0.20;97.60
3069;DHT22;1545;51.728;8.796;2022-11-20T10:36:21;0.30;97.50
3069;DHT22;1545;51.728;8.796;2022-11-20T10:41:23;0.50;97.70
3069;DHT22;1545;51.728;8.796;2022-11-20T10:46:34;0.90;97.70
3069;DHT22;1545;51.728;8.796;2022-11-20T10:49:10;1.20;97.70
3069;DHT22;1545;51.728;8.796;2022-11-20T10:52:04;1.50;96.70
3069;DHT22;1545;51.728;8.796;2022-11-20T10:54:43;1.60;95.20
3069;DHT22;1545;51.728;8.796;2022-11-20T10:57:52;1.60;94.00
3069;DHT22;1545;51.728;8.796;2022-11-20T11:00:21;1.60;94.10
3069;DHT22;1545;51.728;8.796;2022-11-20T11:02:49;1.60;94.10
3069;DHT22;1545;51.728;8.796;2022-11-20T11:05:23;1.50;94.00
3069;DHT22;1545;51.728;8.796;2022-11-20T11:07:53;1.50;94.10
3069;DHT22;1545;51.728;8.796;2022-11-20T11:13:07;1.50;93.40
3069;DHT22;1545;51.728;8.796;2022-11-20T11:15:40;1.50;93.60
3069;DHT22;1545;51.728;8.796;2022-11-20T11:18:10;1.50;93.90
3069;DHT22;1545;51.728;8.796;2022-11-20T11:20:36;1.50;93.90
3069;DHT22;1545;51.728;8.796;2022-11-20T11:23:02;1.50;92.90
3069;DHT22;1545;51.728;8.796;2022-11-20T11:25:33;1.50;92.50
3069;DHT22;1545;51.728;8.796;2022-11-20T11:28:17;1.40;93.00
3069;DHT22;1545;51.728;8.796;2022-11-20T11:30:44;1.40;93.50
3069;DHT22;1545;51.728;8.796;2022-11-20T11:33:18;1.40;93.80
3069;DHT22;1545;51.728;8.796;2022-11-20T11:35:49;1.50;93.70
3069;DHT22;1545;51.728;8.796;2022-11-20T11:38:36;1.50;93.80
3069;DHT22;1545;51.728;8.796;2022-11-20T11:41:05;1.60;93.40
3069;DHT22;1545;51.728;8.796;2022-11-20T11:43:34;1.50;93.30
3069;DHT22;1545;51.728;8.796;2022-11-20T11:51:21;1.60;94.40
3069;DHT22;1545;51.728;8.796;2022-11-20T11:53:46;1.60;94.30
3069;DHT22;1545;51.728;8.796;2022-11-20T11:56:13;1.70;93.70
3069;DHT22;1545;51.728;8.796;2022-11-20T11:58:47;1.70;93.40
3069;DHT22;1545;51.728;8.796;2022-11-20T12:01:32;1.70;93.50
3069;DHT22;1545;51.728;8.796;2022-11-20T12:04:02;1.80;93.60
3069;DHT22;1545;51.728;8.796;2022-11-20T12:06:31;1.80;93.40
3069;DHT22;1545;51.728;8.796;2022-11-20T12:14:13;1.80;92.60
3069;DHT22;1545;51.728;8.796;2022-11-20T12:16:40;1.80;92.40
3069;DHT22;1545;51.728;8.796;2022-11-20T12:19:13;1.80;92.30
3069;DHT22;1545;51.728;8.796;2022-11-20T12:30:16;2.00;91.50
3069;DHT22;1545;51.728;8.796;2022-11-20T12:43:59;2.10;89.90
3069;DHT22;1545;51.728;8.796;2022-11-20T12:46:57;2.10;90.40
3069;DHT22;1545;51.728;8.796;2022-11-20T12:49:38;2.10;90.20
3069;DHT22;1545;51.728;8.796;2022-11-20T12:52:20;2.20;89.90
3069;DHT22;1545;51.728;8.796;2022-11-20T12:57:58;2.30;88.80
3069;DHT22;1545;51.728;8.796;2022-11-20T13:00:26;2.30;88.60
3069;DHT22;1545;51.728;8.796;2022-11-20T13:06:02;2.20;89.10
3069;DHT22;1545;51.728;8.796;2022-11-20T13:08:35;2.20;88.30
3069;DHT22;1545;51.728;8.796;2022-11-20T13:14:19;2.10;88.90
3069;DHT22;1545;51.728;8.796;2022-11-20T13:19:21;2.10;88.90
3069;DHT22;1545;51.728;8.796;2022-11-20T13:21:48;2.10;88.30
3069;DHT22;1545;51.728;8.796;2022-11-20T13:24:24;2.10;87.70
3069;DHT22;1545;51.728;8.796;2022-11-20T13:27:02;2.20;88.20
3069;DHT22;1545;51.728;8.796;2022-11-20T13:29:28;2.20;87.30
3069;DHT22;1545;51.728;8.796;2022-11-20T13:32:06;2.20;87.20
3069;DHT22;1545;51.728;8.796;2022-11-20T13:34:38;2.20;87.50
3069;DHT22;1545;51.728;8.796;2022-11-20T13:37:03;2.20;87.60
3069;DHT22;1545;51.728;8.796;2022-11-20T13:39:35;2.30;87.20
3069;DHT22;1545;51.728;8.796;2022-11-20T13:42:19;2.30;86.80
3069;DHT22;1545;51.728;8.796;2022-11-20T13:44:54;2.30;86.90
3069;DHT22;1545;51.728;8.796;2022-11-20T13:47:25;2.40;86.60
3069;DHT22;1545;51.728;8.796;2022-11-20T13:49:52;2.40;85.50
3069;DHT22;1545;51.728;8.796;2022-11-20T13:52:39;2.40;86.20
3069;DHT22;1545;51.728;8.796;2022-11-20T13:58:36;2.20;87.10
3069;DHT22;1545;51.728;8.796;2022-11-20T14:01:24;2.10;87.10
3069;DHT22;1545;51.728;8.796;2022-11-20T14:03:51;2.00;87.30
3069;DHT22;1545;51.728;8.796;2022-11-20T14:06:28;1.80;88.20
3069;DHT22;1545;51.728;8.796;2022-11-20T14:08:55;1.80;88.10
3069;DHT22;1545;51.728;8.796;2022-11-20T14:11:23;1.70;88.30
3069;DHT22;1545;51.728;8.796;2022-11-20T14:14:04;1.70;88.60
3069;DHT22;1545;51.728;8.796;2022-11-20T14:16:33;1.60;88.80
3069;DHT22;1545;51.728;8.796;2022-11-20T14:21:45;1.50;89.00
3069;DHT22;1545;51.728;8.796;2022-11-20T14:24:13;1.70;88.30
3069;DHT22;1545;51.728;8.796;2022-11-20T14:26:43;1.80;87.70
3069;DHT22;1545;51.728;8.796;2022-11-20T14:29:23;1.80;87.70
3069;DHT22;1545;51.728;8.796;2022-11-20T14:31:53;2.00;87.20
3069;DHT22;1545;51.728;8.796;2022-11-20T14:34:25;1.90;87.40
3069;DHT22;1545;51.728;8.796;2022-11-20T14:36:55;1.90;87.70
3069;DHT22;1545;51.728;8.796;2022-11-20T14:39:31;1.80;87.90
3069;DHT22;1545;51.728;8.796;2022-11-20T14:41:57;1.70;88.30
3069;DHT22;1545;51.728;8.796;2022-11-20T14:44:34;1.60;88.70
3069;DHT22;1545;51.728;8.796;2022-11-20T14:47:01;1.60;88.40
3069;DHT22;1545;51.728;8.796;2022-11-20T14:49:30;1.60;88.60
3069;DHT22;1545;51.728;8.796;2022-11-20T14:52:14;1.50;88.60
3069;DHT22;1545;51.728;8.796;2022-11-20T14:54:44;1.50;88.50
3069;DHT22;1545;51.728;8.796;2022-11-20T14:59:47;1.30;89.30
3069;DHT22;1545;51.728;8.796;2022-11-20T15:02:13;1.40;89.60
3069;DHT22;1545;51.728;8.796;2022-11-20T15:04:50;1.50;88.80
3069;DHT22;1545;51.728;8.796;2022-11-20T15:07:26;1.50;88.50
3069;DHT22;1545;51.728;8.796;2022-11-20T15:10:11;1.50;88.20
3069;DHT22;1545;51.728;8.796;2022-11-20T15:12:46;1.50;87.90
3069;DHT22;1545;51.728;8.796;2022-11-20T15:15:16;1.50;88.20
3069;DHT22;1545;51.728;8.796;2022-11-20T15:17:42;1.50;87.80
3069;DHT22;1545;51.728;8.796;2022-11-20T15:20:15;1.50;87.90
3069;DHT22;1545;51.728;8.796;2022-11-20T15:22:42;1.60;87.50
3069;DHT22;1545;51.728;8.796;2022-11-20T15:25:16;1.60;87.10
3069;DHT22;1545;51.728;8.796;2022-11-20T15:27:43;1.60;87.10
3069;DHT22;1545;51.728;8.796;2022-11-20T15:32:39;1.70;86.60
3069;DHT22;1545;51.728;8.796;2022-11-20T15:35:05;1.70;87.00
3069;DHT22;1545;51.728;8.796;2022-11-20T15:37:31;1.70;86.70
3069;DHT22;1545;51.728;8.796;2022-11-20T15:39:56;1.80;86.00
3069;DHT22;1545;51.728;8.796;2022-11-20T15:42:22;1.80;86.00
3069;DHT22;1545;51.728;8.796;2022-11-20T15:44:47;1.80;86.10
3069;DHT22;1545;51.728;8.796;2022-11-20T15:47:13;1.80;86.10
3069;DHT22;1545;51.728;8.796;2022-11-20T15:49:38;1.80;86.10
3069;DHT22;1545;51.728;8.796;2022-11-20T15:52:04;1.80;86.60
3069;DHT22;1545;51.728;8.796;2022-11-20T15:54:29;1.70;86.80
3069;DHT22;1545;51.728;8.796;2022-11-20T15:56:55;1.70;87.00
3069;DHT22;1545;51.728;8.796;2022-11-20T15:59:20;1.70;87.80
3069;DHT22;1545;51.728;8.796;2022-11-20T16:01:46;1.60;88.30
3069;DHT22;1545;51.728;8.796;2022-11-20T16:04:13;1.70;88.40
3069;DHT22;1545;51.728;8.796;2022-11-20T16:06:39;1.70;88.30
3069;DHT22;1545;51.728;8.796;2022-11-20T16:09:05;1.70;88.10
3069;DHT22;1545;51.728;8.796;2022-11-20T16:11:31;1.70;88.30
3069;DHT22;1545;51.728;8.796;2022-11-20T16:13:57;1.70;88.50
3069;DHT22;1545;51.728;8.796;2022-11-20T16:16:41;1.70;88.40
3069;DHT22;1545;51.728;8.796;2022-11-20T16:19:12;1.80;88.00
3069;DHT22;1545;51.728;8.796;2022-11-20T16:21:38;1.80;87.70
3069;DHT22;1545;51.728;8.796;2022-11-20T16:24:06;1.80;87.70
3069;DHT22;1545;51.728;8.796;2022-11-20T16:26:32;1.80;87.60
3069;DHT22;1545;51.728;8.796;2022-11-20T16:28:59;1.70;87.40
3069;DHT22;1545;51.728;8.796;2022-11-20T16:31:24;1.70;87.40
3069;DHT22;1545;51.728;8.796;2022-11-20T16:33:55;1.70;87.70
3069;DHT22;1545;51.728;8.796;2022-11-20T16:36:22;1.60;88.40
3069;DHT22;1545;51.728;8.796;2022-11-20T16:38:56;1.60;88.70
3069;DHT22;1545;51.728;8.796;2022-11-20T16:41:22;1.60;89.00
3069;DHT22;1545;51.728;8.796;2022-11-20T16:43:50;1.60;89.10
3069;DHT22;1545;51.728;8.796;2022-11-20T16:46:17;1.60;89.50
3069;DHT22;1545;51.728;8.796;2022-11-20T16:48:43;1.60;89.70
3069;DHT22;1545;51.728;8.796;2022-11-20T16:51:10;1.60;89.90
3069;DHT22;1545;51.728;8.796;2022-11-20T16:53:37;1.60;89.90
3069;DHT22;1545;51.728;8.796;2022-11-20T16:58:35;1.70;89.90
3069;DHT22;1545;51.728;8.796;2022-11-20T17:01:07;1.70;90.00
3069;DHT22;1545;51.728;8.796;2022-11-20T17:03:36;1.70;90.20
3069;DHT22;1545;51.728;8.796;2022-11-20T17:06:01;1.70;90.60
3069;DHT22;1545;51.728;8.796;2022-11-20T17:08:27;1.60;91.00
3069;DHT22;1545;51.728;8.796;2022-11-20T17:10:54;1.70;91.20
3069;DHT22;1545;51.728;8.796;2022-11-20T17:13:20;1.60;91.50
3069;DHT22;1545;51.728;8.796;2022-11-20T17:15:45;1.70;91.60
3069;DHT22;1545;51.728;8.796;2022-11-20T17:18:11;1.70;91.70
3069;DHT22;1545;51.728;8.796;2022-11-20T17:20:37;1.70;91.90
3069;DHT22;1545;51.728;8.796;2022-11-20T17:23:02;1.70;92.10
3069;DHT22;1545;51.728;8.796;2022-11-20T17:25:31;1.70;92.10
3069;DHT22;1545;51.728;8.796;2022-11-20T17:27:57;1.70;92.40
3069;DHT22;1545;51.728;8.796;2022-11-20T17:30:23;1.70;92.70
3069;DHT22;1545;51.728;8.796;2022-11-20T17:32:48;1.70;93.10
3069;DHT22;1545;51.728;8.796;2022-11-20T17:35:14;1.60;93.60
3069;DHT22;1545;51.728;8.796;2022-11-20T17:37:39;1.60;94.10
3069;DHT22;1545;51.728;8.796;2022-11-20T17:40:05;1.60;94.70
3069;DHT22;1545;51.728;8.796;2022-11-20T17:42:31;1.60;95.70
3069;DHT22;1545;51.728;8.796;2022-11-20T17:45:01;1.50;96.50